Time;durP1;ratioP1;P1;durP2;ratioP2;P2;SDS_P1;SDS_P2;PMS_P1;PMS_P2;Temp;Humidity;BMP_temperature;BMP_pressure;BME280_temperature;BME280_humidity;BME280_pressure;Samples;Min_cycle;Max_cycle;Signal;HPM_P1;HPM_P2
2021/12/13 00:01:56;;;;;;;184.60;56.58;;;10.10;99.90;;;;;;5068421;28;20439;-72
2021/12/13 00:04:24;;;;;;;165.70;57.00;;;10.10;99.90;;;;;;5068407;28;20055;-72
2021/12/13 00:06:53;;;;;;;;;;;10.10;99.90;;;;;;5066823;28;20044;-72
2021/12/13 00:09:24;;;;;;;155.70;54.78;;;10.00;99.90;;;;;;5064379;28;19928;-71
2021/12/13 00:11:53;;;;;;;175.02;57.72;;;10.10;99.90;;;;;;5069942;28;20047;-72
2021/12/13 00:14:21;;;;;;;187.57;58.22;;;10.00;99.90;;;;;;5057543;28;20040;-72
2021/12/13 00:16:59;;;;;;;190.88;58.22;;;10.10;99.90;;;;;;5062626;28;20056;-72
2021/12/13 00:19:37;;;;;;;165.65;55.08;;;10.10;99.90;;;;;;5059955;28;20536;-72
2021/12/13 00:22:14;;;;;;;172.20;59.97;;;10.10;99.90;;;;;;5068407;28;20461;-72
2021/12/13 00:24:43;;;;;;;149.85;54.60;;;10.10;99.90;;;;;;5070183;28;20062;-72
2021/12/13 00:27:22;;;;;;;147.48;53.28;;;10.10;99.90;;;;;;5068703;28;20413;-72
2021/12/13 00:29:59;;;;;;;154.38;55.30;;;10.20;99.90;;;;;;5067464;28;20052;-72
2021/12/13 00:32:46;;;;;;;149.80;55.05;;;10.10;99.90;;;;;;5068330;28;20142;-72
2021/12/13 00:35:19;;;;;;;180.13;59.65;;;10.10;99.90;;;;;;5063601;28;20123;-72
2021/12/13 00:37:49;;;;;;;182.10;58.35;;;10.10;99.90;;;;;;5060327;28;20055;-72
2021/12/13 00:40:24;;;;;;;159.07;54.83;;;10.10;99.90;;;;;;5069023;28;20093;-72
2021/12/13 00:42:59;;;;;;;149.38;55.58;;;10.10;99.90;;;;;;5067687;28;20056;-72
2021/12/13 00:45:29;;;;;;;156.00;51.75;;;10.10;99.90;;;;;;5087627;28;20055;-72
2021/12/13 00:47:56;;;;;;;179.15;56.47;;;10.10;99.90;;;;;;5069330;28;20113;-72
2021/12/13 00:50:38;;;;;;;155.02;57.90;;;10.10;99.90;;;;;;5064110;28;20094;-71
2021/12/13 00:53:04;;;;;;;171.88;58.05;;;10.10;99.90;;;;;;5053099;28;20141;-72
2021/12/13 00:55:32;;;;;;;157.25;55.75;;;10.10;99.90;;;;;;5058736;28;20048;-72
2021/12/13 00:58:11;;;;;;;158.20;55.28;;;10.10;99.90;;;;;;5070601;28;20052;-72
2021/12/13 01:01:01;;;;;;;161.60;58.97;;;10.10;99.90;;;;;;5070181;28;20044;-72
2021/12/13 01:03:35;;;;;;;161.95;61.20;;;10.10;99.90;;;;;;5056443;28;20054;-72
2021/12/13 01:06:38;;;;;;;136.85;57.15;;;10.10;99.90;;;;;;5061366;28;20076;-72
2021/12/13 01:09:06;;;;;;;145.45;54.40;;;10.20;99.90;;;;;;5061604;28;20080;-72
2021/12/13 01:11:39;;;;;;;142.07;51.88;;;10.20;99.90;;;;;;5069810;28;20040;-72
2021/12/13 01:14:28;;;;;;;153.57;56.50;;;10.10;99.90;;;;;;5069585;28;20170;-72
2021/12/13 01:17:06;;;;;;;168.95;58.60;;;10.10;99.90;;;;;;5071920;28;20492;-72
2021/12/13 01:19:51;;;;;;;154.38;53.00;;;10.10;99.90;;;;;;5054761;28;20080;-72
2021/12/13 01:22:44;;;;;;;152.10;54.10;;;10.10;99.90;;;;;;5072084;28;20044;-72
2021/12/13 01:25:20;;;;;;;135.85;52.63;;;10.10;99.90;;;;;;5082525;28;20101;-72
2021/12/13 01:28:03;;;;;;;170.85;54.75;;;10.10;99.90;;;;;;5071517;28;20861;-72
2021/12/13 01:30:34;;;;;;;127.60;51.47;;;10.10;99.90;;;;;;5083259;28;20390;-72
2021/12/13 01:33:04;;;;;;;146.82;52.25;;;10.10;99.90;;;;;;5066784;28;20056;-72
2021/12/13 01:35:33;;;;;;;137.45;51.80;;;10.20;99.90;;;;;;5058013;28;20485;-72
2021/12/13 01:38:04;;;;;;;141.80;51.25;;;10.10;99.90;;;;;;5071417;28;20098;-72
2021/12/13 01:40:33;;;;;;;127.53;50.35;;;10.20;99.90;;;;;;5071371;28;20370;-71
2021/12/13 01:43:17;;;;;;;105.32;46.13;;;10.20;99.90;;;;;;5073132;28;20047;-72
2021/12/13 01:45:46;;;;;;;140.13;49.58;;;10.20;99.90;;;;;;5059141;28;20052;-71
2021/12/13 01:48:25;;;;;;;113.43;44.17;;;10.20;99.90;;;;;;5066137;28;20048;-71
2021/12/13 01:51:03;;;;;;;109.53;41.38;;;10.20;99.90;;;;;;5064660;28;20054;-72
2021/12/13 01:53:51;;;;;;;113.40;41.25;;;10.10;99.90;;;;;;5065648;28;20048;-72
2021/12/13 01:56:56;;;;;;;95.00;40.92;;;10.10;99.90;;;;;;5069825;28;20056;-71
2021/12/13 01:59:29;;;;;;;105.07;42.35;;;10.10;99.90;;;;;;5050218;28;20051;-71
2021/12/13 02:01:59;;;;;;;75.38;34.80;;;10.10;99.90;;;;;;5069360;28;20044;-71
2021/12/13 02:04:25;;;;;;;96.47;38.58;;;10.10;99.90;;;;;;5070108;28;20055;-71
2021/12/13 02:06:56;;;;;;;91.72;34.95;;;10.20;99.90;;;;;;5070897;28;20040;-71
2021/12/13 02:09:25;;;;;;;86.13;33.35;;;10.10;99.90;;;;;;5071413;28;20390;-72
2021/12/13 02:11:57;;;;;;;71.22;31.02;;;10.20;99.90;;;;;;5072229;28;20466;-71
2021/12/13 02:14:27;;;;;;;75.93;31.90;;;10.20;99.90;;;;;;5070920;28;20547;-71
2021/12/13 02:17:10;;;;;;;83.25;31.85;;;10.10;99.90;;;;;;5071492;28;20050;-71
2021/12/13 02:19:42;;;;;;;79.47;34.75;;;10.20;99.90;;;;;;5065687;28;20048;-71
2021/12/13 02:22:31;;;;;;;104.63;37.90;;;10.10;99.90;;;;;;5061582;28;20036;-71
2021/12/13 02:25:18;;;;;;;75.03;34.08;;;10.10;99.90;;;;;;5055133;28;20047;-71
2021/12/13 02:27:52;;;;;;;79.45;34.45;;;10.10;99.90;;;;;;5008366;28;20497;-71
2021/12/13 02:30:28;;;;;;;68.85;34.10;;;10.10;99.90;;;;;;5070225;28;20396;-71
2021/12/13 02:32:55;;;;;;;65.97;33.25;;;10.10;99.90;;;;;;5068335;28;20071;-71
2021/12/13 02:35:25;;;;;;;76.57;35.30;;;10.10;99.90;;;;;;5076517;28;20045;-71
2021/12/13 02:37:51;;;;;;;71.13;36.45;;;10.10;99.90;;;;;;5059756;28;20044;-71
2021/12/13 02:40:20;;;;;;;88.10;38.22;;;10.10;99.90;;;;;;5053371;28;20098;-71
2021/12/13 02:42:46;;;;;;;86.10;39.22;;;10.10;99.90;;;;;;5084812;28;20447;-71
2021/12/13 02:45:18;;;;;;;75.88;38.10;;;10.10;99.90;;;;;;5067606;28;20040;-71
2021/12/13 02:47:58;;;;;;;89.28;39.08;;;10.10;99.90;;;;;;5060389;28;20105;-71
2021/12/13 02:50:56;;;;;;;81.80;40.60;;;10.10;99.90;;;;;;5060458;28;20051;-71
2021/12/13 02:53:24;;;;;;;;;;;10.10;99.90;;;;;;4996338;28;20056;-71
2021/12/13 02:55:50;;;;;;;83.78;42.65;;;10.10;99.90;;;;;;5070186;28;20002;-72
2021/12/13 02:58:18;;;;;;;91.00;43.22;;;10.10;99.90;;;;;;5063346;28;20136;-71
2021/12/13 03:00:56;;;;;;;89.78;42.55;;;10.10;99.90;;;;;;5060789;28;20052;-72
2021/12/13 03:03:26;;;;;;;89.57;40.65;;;10.10;99.90;;;;;;5075598;28;20032;-71
2021/12/13 03:05:54;;;;;;;85.35;40.95;;;10.10;99.90;;;;;;5066129;28;20123;-72
2021/12/13 03:08:27;;;;;;;94.25;41.58;;;10.10;99.90;;;;;;5067148;28;20102;-72
2021/12/13 03:11:01;;;;;;;81.50;40.42;;;10.10;99.90;;;;;;5068835;28;20063;-72
2021/12/13 03:13:30;;;;;;;83.55;40.10;;;10.00;99.90;;;;;;5041698;28;20061;-71
2021/12/13 03:16:04;;;;;;;85.70;40.35;;;10.00;99.90;;;;;;5060072;28;20098;-71
2021/12/13 03:18:41;;;;;;;88.07;39.50;;;10.00;99.90;;;;;;5063731;28;20101;-72
2021/12/13 03:21:58;;;;;;;91.83;41.10;;;10.00;99.90;;;;;;5068740;28;20051;-71
2021/12/13 03:24:35;;;;;;;84.45;39.92;;;10.00;99.90;;;;;;5011700;28;20046;-72
2021/12/13 03:27:03;;;;;;;90.45;42.28;;;10.00;99.90;;;;;;4983922;28;20406;-72
2021/12/13 03:30:05;;;;;;;79.18;39.28;;;10.00;99.90;;;;;;5033669;28;20101;-72
2021/12/13 03:32:44;;;;;;;81.93;39.60;;;10.00;99.90;;;;;;5052115;28;20101;-71
2021/12/13 03:35:19;;;;;;;74.15;40.00;;;10.00;99.90;;;;;;5066519;28;20048;-72
2021/12/13 03:37:45;;;;;;;78.35;38.42;;;10.00;99.90;;;;;;5065804;28;20044;-72
2021/12/13 03:40:17;;;;;;;74.78;34.70;;;10.00;99.90;;;;;;5069751;28;20044;-72
2021/12/13 03:42:52;;;;;;;70.10;37.17;;;10.00;99.90;;;;;;5064748;28;20539;-72
2021/12/13 03:45:30;;;;;;;73.32;36.95;;;10.00;99.90;;;;;;5061661;28;20044;-72
2021/12/13 03:47:58;;;;;;;75.20;35.92;;;10.00;99.90;;;;;;5070716;28;20047;-72
2021/12/13 03:50:34;;;;;;;76.15;32.95;;;9.90;99.90;;;;;;5070611;28;20123;-72
2021/12/13 03:53:06;;;;;;;71.60;34.95;;;9.90;99.90;;;;;;5055138;28;20044;-71
2021/12/13 03:55:33;;;;;;;77.45;33.63;;;9.90;99.90;;;;;;5055768;28;20040;-72
2021/12/13 03:58:04;;;;;;;64.72;31.40;;;9.90;99.90;;;;;;5073602;28;20091;-72
2021/12/13 04:00:35;;;;;;;57.95;28.55;;;9.80;99.90;;;;;;5080111;28;20051;-72
2021/12/13 04:03:05;;;;;;;58.50;31.80;;;9.80;99.90;;;;;;5070520;28;20386;-72
2021/12/13 04:05:31;;;;;;;59.85;30.33;;;9.80;99.90;;;;;;5068870;28;20089;-72
2021/12/13 04:08:01;;;;;;;53.22;29.75;;;9.80;99.90;;;;;;5071293;28;20044;-72
2021/12/13 04:10:30;;;;;;;54.40;28.23;;;9.80;99.90;;;;;;5058153;28;20131;-72
2021/12/13 04:13:00;;;;;;;60.83;29.08;;;9.80;99.90;;;;;;5058784;28;20048;-72
2021/12/13 04:15:34;;;;;;;60.45;30.10;;;9.80;99.90;;;;;;5046226;28;20044;-72
2021/12/13 04:18:26;;;;;;;44.22;26.05;;;9.70;99.90;;;;;;5061111;28;20485;-72
2021/12/13 04:21:02;;;;;;;48.42;25.55;;;9.70;99.90;;;;;;5068095;28;20417;-72
2021/12/13 04:23:29;;;;;;;53.55;25.70;;;9.60;99.90;;;;;;5065778;28;20078;-72
2021/12/13 04:25:56;;;;;;;44.22;24.55;;;9.60;99.90;;;;;;5057631;28;20059;-72
2021/12/13 04:28:45;;;;;;;50.38;27.30;;;9.60;99.90;;;;;;5059899;28;20055;-72
2021/12/13 04:31:15;;;;;;;51.20;24.65;;;9.60;99.90;;;;;;5068389;28;20082;-72
2021/12/13 04:33:44;;;;;;;45.28;26.95;;;9.60;99.90;;;;;;5068933;28;20075;-72
2021/12/13 04:36:30;;;;;;;43.90;23.70;;;9.60;99.90;;;;;;5068534;28;20044;-72
2021/12/13 04:39:00;;;;;;;54.03;25.73;;;9.60;99.90;;;;;;5052333;28;20086;-72
2021/12/13 04:41:34;;;;;;;52.20;27.08;;;9.60;99.90;;;;;;5049709;28;20044;-72
2021/12/13 04:44:11;;;;;;;45.17;25.42;;;9.50;99.90;;;;;;5063108;28;20068;-72
2021/12/13 04:46:39;;;;;;;55.10;27.00;;;9.50;99.90;;;;;;5070759;28;20071;-72
2021/12/13 04:49:13;;;;;;;55.58;25.73;;;9.40;99.90;;;;;;5071479;28;20059;-72
2021/12/13 04:51:54;;;;;;;45.17;26.92;;;9.40;99.90;;;;;;5057593;28;20079;-72
2021/12/13 04:54:21;;;;;;;48.97;26.48;;;9.40;99.90;;;;;;5068599;28;20057;-73
2021/12/13 04:56:48;;;;;;;43.92;26.77;;;9.30;99.90;;;;;;5065909;28;20123;-72
2021/12/13 04:59:15;;;;;;;47.63;25.15;;;9.30;99.90;;;;;;5070130;28;20140;-72
2021/12/13 05:01:46;;;;;;;44.50;26.75;;;9.30;99.90;;;;;;5068865;28;20097;-72
2021/12/13 05:04:12;;;;;;;54.95;27.40;;;9.30;99.90;;;;;;5069375;28;20157;-72
2021/12/13 05:06:41;;;;;;;52.75;30.85;;;9.20;99.90;;;;;;5069584;28;20047;-72
2021/12/13 05:09:10;;;;;;;63.35;28.30;;;9.20;99.90;;;;;;5065796;28;20052;-72
2021/12/13 05:11:42;;;;;;;49.88;26.02;;;9.20;99.90;;;;;;5070929;28;20119;-72
2021/12/13 05:14:08;;;;;;;56.50;26.75;;;9.00;99.90;;;;;;5070114;28;20235;-72
2021/12/13 05:16:45;;;;;;;64.00;27.35;;;8.90;99.90;;;;;;5071972;28;20041;-73
2021/12/13 05:19:14;;;;;;;59.17;28.50;;;9.00;99.90;;;;;;5071854;28;20048;-73
2021/12/13 05:21:44;;;;;;;49.08;25.85;;;9.00;99.90;;;;;;5070532;28;20081;-72
2021/12/13 05:24:16;;;;;;;57.92;26.10;;;9.00;99.90;;;;;;5072531;28;20047;-72
2021/12/13 05:27:01;;;;;;;55.08;27.52;;;9.00;99.90;;;;;;5071570;28;20048;-73
2021/12/13 05:29:26;;;;;;;53.40;26.98;;;9.10;99.90;;;;;;5070337;28;20067;-73
2021/12/13 05:32:06;;;;;;;55.55;26.85;;;9.00;99.90;;;;;;5054236;28;20056;-73
2021/12/13 05:34:54;;;;;;;44.83;26.05;;;9.00;99.90;;;;;;5066117;28;20497;-72
2021/12/13 05:37:20;;;;;;;47.05;26.63;;;9.10;99.90;;;;;;5063751;28;20127;-73
2021/12/13 05:40:10;;;;;;;47.67;26.33;;;9.10;99.90;;;;;;5059353;28;20408;-73
2021/12/13 05:42:47;;;;;;;51.22;27.35;;;9.10;99.90;;;;;;5057575;28;20129;-73
2021/12/13 05:45:18;;;;;;;57.78;27.67;;;9.10;99.90;;;;;;5089364;28;20123;-72
2021/12/13 05:48:06;;;;;;;44.13;24.27;;;9.10;99.90;;;;;;5066463;28;20108;-72
2021/12/13 05:50:52;;;;;;;47.73;25.13;;;9.10;99.90;;;;;;5057990;28;20052;-72
2021/12/13 05:53:22;;;;;;;37.30;23.00;;;9.10;99.90;;;;;;5060739;28;20282;-72
2021/12/13 05:56:08;;;;;;;42.85;24.00;;;9.10;99.90;;;;;;5070414;28;20122;-72
2021/12/13 05:58:53;;;;;;;38.28;21.88;;;9.10;99.90;;;;;;5058804;28;20051;-72
2021/12/13 06:01:28;;;;;;;37.47;21.35;;;9.10;99.90;;;;;;5058184;28;20650;-72
2021/12/13 06:04:06;;;;;;;37.95;20.88;;;9.00;99.90;;;;;;5067770;28;20044;-72
2021/12/13 06:06:34;;;;;;;50.08;20.33;;;9.10;99.90;;;;;;5063950;28;20509;-73
2021/12/13 06:09:01;;;;;;;37.75;19.67;;;9.10;99.90;;;;;;5053210;28;20048;-72
2021/12/13 06:11:33;;;;;;;33.40;20.00;;;9.00;99.90;;;;;;5070535;28;20046;-72
2021/12/13 06:14:06;;;;;;;41.50;21.45;;;9.10;99.90;;;;;;5070919;28;20485;-72
2021/12/13 06:16:43;;;;;;;39.70;20.60;;;9.10;99.90;;;;;;5071034;28;20052;-72
2021/12/13 06:19:49;;;;;;;34.40;21.35;;;9.10;99.90;;;;;;5062901;28;20052;-72
2021/12/13 06:22:21;;;;;;;38.40;21.23;;;9.10;99.90;;;;;;4979366;28;20041;-72
2021/12/13 06:24:53;;;;;;;44.20;21.95;;;9.10;99.90;;;;;;4980901;28;20129;-72
2021/12/13 06:27:22;;;;;;;35.88;20.83;;;9.10;99.90;;;;;;5022872;28;20062;-72
2021/12/13 06:29:55;;;;;;;31.58;20.33;;;9.10;99.90;;;;;;5070562;28;20066;-72
2021/12/13 06:32:26;;;;;;;41.78;23.40;;;9.10;99.90;;;;;;5062707;28;20127;-72
2021/12/13 06:34:52;;;;;;;38.03;23.00;;;9.10;99.90;;;;;;5067536;28;20044;-73
2021/12/13 06:37:28;;;;;;;42.28;25.00;;;9.10;99.90;;;;;;5068109;28;20400;-72
2021/12/13 06:40:17;;;;;;;48.00;24.95;;;9.10;99.90;;;;;;5049762;28;20052;-72
2021/12/13 06:42:43;;;;;;;45.47;25.60;;;9.10;99.90;;;;;;5053042;28;20052;-72
2021/12/13 06:45:22;;;;;;;43.97;25.88;;;9.10;99.90;;;;;;5070598;28;20040;-72
2021/12/13 06:47:53;;;;;;;45.80;26.88;;;9.10;99.90;;;;;;5069647;28;20044;-72
2021/12/13 06:50:35;;;;;;;48.75;27.33;;;9.10;99.90;;;;;;5071732;28;20060;-72
2021/12/13 06:53:20;;;;;;;52.08;27.95;;;9.10;99.90;;;;;;5068873;28;20048;-72
2021/12/13 06:55:46;;;;;;;46.58;28.50;;;9.10;99.90;;;;;;5068217;28;20044;-73
2021/12/13 06:58:21;;;;;;;57.10;30.42;;;9.10;99.90;;;;;;5067958;28;20055;-72
2021/12/13 07:00:49;;;;;;;56.58;31.10;;;9.10;99.90;;;;;;5070062;28;20051;-72
2021/12/13 07:03:27;;;;;;;52.78;31.23;;;9.10;99.90;;;;;;5070322;28;20044;-72
2021/12/13 07:05:59;;;;;;;51.67;30.10;;;9.10;99.90;;;;;;5066777;28;20044;-72
2021/12/13 07:08:32;;;;;;;52.13;30.13;;;9.10;99.90;;;;;;5069870;28;20119;-72
2021/12/13 07:11:01;;;;;;;56.90;31.80;;;9.10;99.90;;;;;;5069840;28;20047;-72
2021/12/13 07:13:37;;;;;;;61.97;33.95;;;9.10;99.90;;;;;;5065596;28;20087;-72
2021/12/13 07:16:07;;;;;;;62.40;35.17;;;9.10;99.90;;;;;;5081582;28;20051;-72
2021/12/13 07:18:48;;;;;;;64.40;35.75;;;9.10;99.90;;;;;;5062557;28;20048;-72
2021/12/13 07:21:17;;;;;;;57.58;33.85;;;9.00;99.90;;;;;;5064370;28;20153;-73
2021/12/13 07:23:57;;;;;;;63.72;37.33;;;9.00;99.90;;;;;;5062722;28;20053;-73
2021/12/13 07:26:56;;;;;;;71.28;36.90;;;9.10;99.90;;;;;;5087590;28;20405;-73
2021/12/13 07:29:39;;;;;;;68.07;39.67;;;9.10;99.90;;;;;;5054221;28;20048;-72
2021/12/13 07:32:16;;;;;;;77.55;40.50;;;9.10;99.90;;;;;;5085686;28;20089;-73
2021/12/13 07:34:55;;;;;;;68.88;40.20;;;9.00;99.90;;;;;;5068904;28;20096;-73
2021/12/13 07:37:34;;;;;;;76.90;43.70;;;9.10;99.90;;;;;;5062863;28;20055;-73
2021/12/13 07:40:29;;;;;;;75.72;42.72;;;9.10;99.90;;;;;;5067722;28;20051;-72
2021/12/13 07:43:18;;;;;;;78.20;46.17;;;9.10;99.90;;;;;;5055716;28;20047;-73
2021/12/13 07:46:05;;;;;;;76.05;44.25;;;9.00;99.90;;;;;;5058257;28;20056;-73
2021/12/13 07:48:35;;;;;;;82.07;47.75;;;9.10;99.90;;;;;;5060110;28;20057;-73
2021/12/13 07:51:18;;;;;;;73.00;44.67;;;9.00;99.90;;;;;;5065174;28;20052;-73
2021/12/13 07:53:59;;;;;;;77.55;47.72;;;9.00;99.90;;;;;;5068291;28;20108;-73
2021/12/13 07:56:37;;;;;;;94.53;47.75;;;9.10;99.90;;;;;;5058152;28;20040;-73
2021/12/13 07:59:22;;;;;;;83.45;48.17;;;9.10;99.90;;;;;;5075760;28;20056;-73
2021/12/13 08:02:07;;;;;;;84.05;47.50;;;9.00;99.90;;;;;;5068233;28;20155;-73
2021/12/13 08:04:36;;;;;;;87.32;49.90;;;9.10;99.90;;;;;;5068451;28;20052;-73
2021/12/13 08:07:17;;;;;;;90.55;48.88;;;9.10;99.90;;;;;;5057100;28;20056;-72
2021/12/13 08:09:47;;;;;;;86.00;50.80;;;9.10;99.90;;;;;;5062023;28;20053;-73
2021/12/13 08:12:46;;;;;;;92.10;51.50;;;9.10;99.90;;;;;;5066115;28;20059;-73
2021/12/13 08:15:17;;;;;;;96.55;50.92;;;9.10;99.90;;;;;;5052237;28;20456;-72
2021/12/13 08:17:50;;;;;;;92.82;50.58;;;9.10;99.90;;;;;;5064996;28;20489;-72
2021/12/13 08:20:29;;;;;;;81.60;49.63;;;9.10;99.90;;;;;;5056044;28;20087;-73
2021/12/13 08:22:56;;;;;;;80.95;46.30;;;9.10;99.90;;;;;;5048402;28;20062;-73
2021/12/13 08:25:26;;;;;;;85.25;49.53;;;9.10;99.90;;;;;;5062936;28;20123;-72
2021/12/13 08:28:08;;;;;;;77.93;47.67;;;9.10;99.90;;;;;;5065548;28;20048;-72
2021/12/13 08:30:45;;;;;;;84.30;50.13;;;9.10;99.90;;;;;;5066604;28;20131;-72
2021/12/13 08:33:39;;;;;;;82.55;48.10;;;9.10;99.90;;;;;;5070368;28;20111;-72
2021/12/13 08:36:17;;;;;;;74.45;45.13;;;9.20;99.90;;;;;;5063643;28;20074;-72
2021/12/13 08:38:50;;;;;;;75.32;45.65;;;9.20;99.90;;;;;;5072832;28;20093;-72
2021/12/13 08:41:15;;;;;;;81.03;46.30;;;9.10;99.90;;;;;;5065464;28;20048;-73
2021/12/13 08:43:51;;;;;;;79.95;48.08;;;9.20;99.90;;;;;;5070188;28;20040;-73
2021/12/13 08:46:40;;;;;;;77.53;47.38;;;9.20;99.90;;;;;;5064130;28;20048;-73
2021/12/13 08:49:34;;;;;;;75.75;45.85;;;9.20;99.90;;;;;;5069723;28;20532;-72
2021/12/13 08:52:22;;;;;;;76.55;46.53;;;9.20;99.90;;;;;;5047403;28;20070;-73
2021/12/13 08:55:27;;;;;;;80.80;47.92;;;9.20;99.90;;;;;;5067515;28;20127;-72
2021/12/13 08:57:58;;;;;;;75.45;44.50;;;9.20;99.90;;;;;;5053438;28;20565;-73
2021/12/13 09:00:42;;;;;;;75.05;44.45;;;9.20;99.90;;;;;;5073216;28;20044;-73
2021/12/13 09:03:16;;;;;;;80.80;46.38;;;9.30;99.90;;;;;;5072804;28;20083;-73
2021/12/13 09:06:03;;;;;;;72.65;43.15;;;9.20;99.90;;;;;;5069581;28;20075;-72
2021/12/13 09:08:43;;;;;;;75.50;47.72;;;9.20;99.90;;;;;;5062334;28;20106;-72
2021/12/13 09:11:27;;;;;;;73.85;46.30;;;9.20;99.90;;;;;;5066756;28;20750;-73
2021/12/13 09:14:09;;;;;;;66.20;42.90;;;9.30;99.90;;;;;;5055003;28;20147;-73
2021/12/13 09:17:07;;;;;;;76.90;45.38;;;9.30;99.90;;;;;;5069337;28;20555;-72
2021/12/13 09:19:56;;;;;;;74.13;45.25;;;9.30;99.90;;;;;;5070156;28;20044;-73
2021/12/13 09:22:30;;;;;;;80.70;45.90;;;9.30;99.90;;;;;;5068648;28;20049;-72
2021/12/13 09:25:22;;;;;;;70.22;45.40;;;9.30;99.90;;;;;;5064564;28;20040;-73
2021/12/13 09:27:55;;;;;;;76.05;46.58;;;9.30;99.90;;;;;;5063051;28;20048;-72
2021/12/13 09:30:36;;;;;;;83.47;44.10;;;9.30;99.90;;;;;;5068389;28;20052;-73
2021/12/13 09:33:15;;;;;;;69.40;42.35;;;9.30;99.90;;;;;;5069014;28;20485;-72
2021/12/13 09:35:49;;;;;;;65.80;43.50;;;9.30;99.90;;;;;;5059056;28;20048;-72
2021/12/13 09:38:20;;;;;;;68.43;43.83;;;9.30;99.90;;;;;;5068561;28;20052;-72
2021/12/13 09:41:18;;;;;;;69.90;41.92;;;9.30;99.90;;;;;;5067306;28;20079;-72
2021/12/13 09:43:51;;;;;;;72.90;40.25;;;9.40;99.90;;;;;;5063717;28;20516;-72
2021/12/13 09:46:42;;;;;;;63.10;40.92;;;9.30;99.90;;;;;;5071065;28;20082;-73
2021/12/13 09:49:13;;;;;;;64.93;39.72;;;9.40;99.90;;;;;;5043096;28;21003;-72
2021/12/13 09:51:44;;;;;;;68.10;43.17;;;9.40;99.90;;;;;;5055208;28;20047;-72
2021/12/13 09:54:12;;;;;;;67.13;40.97;;;9.40;99.90;;;;;;5068446;28;20102;-73
2021/12/13 09:56:46;;;;;;;74.22;42.88;;;9.50;99.90;;;;;;5062750;28;20036;-72
2021/12/13 09:59:22;;;;;;;67.72;41.15;;;9.50;99.90;;;;;;5059456;28;20485;-72
2021/12/13 10:01:49;;;;;;;63.63;40.92;;;9.50;99.90;;;;;;5071952;28;20054;-72
2021/12/13 10:04:23;;;;;;;60.55;39.13;;;9.50;99.90;;;;;;5068931;28;20079;-73
2021/12/13 10:06:56;;;;;;;58.70;38.63;;;9.50;99.90;;;;;;5069361;28;20052;-73
2021/12/13 10:09:54;;;;;;;64.55;40.67;;;9.60;99.90;;;;;;5071719;28;20408;-72
2021/12/13 10:12:27;;;;;;;66.15;37.63;;;9.60;99.90;;;;;;5054529;28;20049;-72
2021/12/13 10:15:01;;;;;;;62.22;38.72;;;9.60;99.90;;;;;;5068737;28;20063;-71
2021/12/13 10:17:31;;;;;;;67.32;38.38;;;9.60;99.90;;;;;;5067262;28;20652;-71
2021/12/13 10:20:04;;;;;;;61.13;38.42;;;9.60;99.90;;;;;;5064033;28;20055;-71
2021/12/13 10:22:31;;;;;;;63.65;38.03;;;9.60;99.90;;;;;;5058664;28;20051;-71
2021/12/13 10:25:04;;;;;;;64.57;38.05;;;9.60;99.90;;;;;;5066941;28;20047;-71
2021/12/13 10:27:31;;;;;;;53.05;36.28;;;9.70;99.90;;;;;;5070408;28;20047;-71
2021/12/13 10:30:00;;;;;;;56.95;37.72;;;9.70;99.90;;;;;;5063692;28;20048;-71
2021/12/13 10:32:37;;;;;;;58.33;36.88;;;9.70;99.90;;;;;;5071720;28;20047;-71
2021/12/13 10:35:24;;;;;;;55.78;36.60;;;9.70;99.90;;;;;;5070032;28;20075;-71
2021/12/13 10:37:53;;;;;;;56.15;35.25;;;9.80;99.90;;;;;;5064777;28;20093;-71
2021/12/13 10:40:23;;;;;;;59.70;34.85;;;9.80;99.90;;;;;;5068620;28;20060;-71
2021/12/13 10:42:54;;;;;;;57.17;36.63;;;9.80;99.90;;;;;;5063608;28;20052;-71
2021/12/13 10:45:39;;;;;;;56.28;34.13;;;9.80;99.90;;;;;;5066901;28;20073;-71
2021/12/13 10:48:07;;;;;;;51.58;32.38;;;9.80;99.90;;;;;;5065674;28;20044;-71
2021/12/13 10:50:45;;;;;;;53.17;33.67;;;9.80;99.90;;;;;;5074404;28;20048;-71
2021/12/13 10:53:14;;;;;;;50.13;33.83;;;9.80;99.90;;;;;;5062714;28;20131;-71
2021/12/13 10:55:46;;;;;;;61.83;34.10;;;9.70;99.90;;;;;;5047884;28;20102;-71
2021/12/13 10:58:22;;;;;;;53.15;33.83;;;9.80;99.90;;;;;;5070301;28;20040;-71
2021/12/13 11:01:03;;;;;;;56.75;34.83;;;9.80;99.90;;;;;;5085516;28;20101;-71
2021/12/13 11:03:31;;;;;;;55.03;33.17;;;9.80;99.90;;;;;;5070394;28;20119;-71
2021/12/13 11:05:58;;;;;;;57.47;34.10;;;9.80;99.90;;;;;;5066048;28;20083;-71
2021/12/13 11:08:27;;;;;;;54.17;31.60;;;9.80;99.90;;;;;;5062544;28;20049;-72
2021/12/13 11:11:00;;;;;;;44.42;30.75;;;9.80;99.90;;;;;;5067131;28;20052;-72
2021/12/13 11:13:29;;;;;;;52.13;34.53;;;9.90;99.90;;;;;;5067978;28;20173;-71
2021/12/13 11:15:59;;;;;;;48.55;32.20;;;9.90;99.90;;;;;;5069189;28;20059;-71
2021/12/13 11:18:28;;;;;;;56.40;32.42;;;9.90;99.90;;;;;;5065890;28;20877;-72
2021/12/13 11:20:58;;;;;;;53.03;31.83;;;9.90;99.90;;;;;;5069646;28;20449;-72
2021/12/13 11:23:26;;;;;;;52.88;32.05;;;9.90;99.90;;;;;;5067159;28;20694;-71
2021/12/13 11:25:57;;;;;;;51.17;33.78;;;10.00;99.90;;;;;;5069089;28;20049;-72
2021/12/13 11:28:25;;;;;;;48.70;32.50;;;10.00;99.90;;;;;;5069199;28;20515;-72
2021/12/13 11:30:57;;;;;;;51.50;32.70;;;10.00;99.90;;;;;;5068644;28;20699;-72
2021/12/13 11:34:01;;;;;;;50.13;31.58;;;10.00;99.90;;;;;;5059795;28;20151;-71
2021/12/13 11:36:45;;;;;;;51.05;30.92;;;10.00;99.90;;;;;;5040320;28;20051;-72
2021/12/13 11:39:29;;;;;;;55.60;34.40;;;10.00;99.90;;;;;;5068114;28;20435;-72
2021/12/13 11:42:34;;;;;;;47.90;31.17;;;10.00;99.90;;;;;;5063040;28;20154;-71
2021/12/13 11:45:19;;;;;;;48.63;32.78;;;10.00;99.90;;;;;;5017980;28;20052;-71
2021/12/13 11:48:06;;;;;;;49.95;31.17;;;10.00;99.90;;;;;;5067522;28;20055;-71
2021/12/13 11:51:09;;;;;;;50.17;32.75;;;10.00;99.90;;;;;;5070961;28;20101;-71
2021/12/13 11:54:00;;;;;;;46.33;30.10;;;10.00;99.90;;;;;;5065390;28;20076;-71
2021/12/13 11:56:52;;;;;;;47.53;30.00;;;10.00;99.90;;;;;;5085635;28;20100;-71
2021/12/13 11:59:55;;;;;;;45.97;32.00;;;10.00;99.90;;;;;;5071246;28;20138;-71
2021/12/13 12:02:58;;;;;;;43.10;29.15;;;10.00;99.90;;;;;;5063078;28;20040;-71
2021/12/13 12:06:03;;;;;;;50.80;29.95;;;10.00;99.90;;;;;;5063944;28;20044;-71
2021/12/13 12:08:55;;;;;;;50.83;31.88;;;10.10;99.90;;;;;;5037265;28;20060;-71
2021/12/13 12:11:53;;;;;;;50.35;28.85;;;10.10;99.90;;;;;;5066769;28;20515;-71
2021/12/13 12:14:24;;;;;;;46.45;30.38;;;10.10;99.90;;;;;;5039895;28;20060;-71
2021/12/13 12:16:55;;;;;;;51.35;32.50;;;10.10;99.90;;;;;;5067582;28;20052;-71
2021/12/13 12:19:34;;;;;;;46.50;30.35;;;10.10;99.90;;;;;;5062338;28;20060;-71
2021/12/13 12:21:59;;;;;;;46.08;29.85;;;10.10;99.90;;;;;;5064517;28;20040;-71
2021/12/13 12:24:38;;;;;;;51.08;30.42;;;10.10;99.90;;;;;;5064381;28;20054;-71
2021/12/13 12:27:08;;;;;;;51.75;30.13;;;10.10;99.90;;;;;;5059772;28;20051;-71
2021/12/13 12:29:38;;;;;;;54.53;30.42;;;10.10;99.90;;;;;;5065575;28;20052;-71
2021/12/13 12:32:26;;;;;;;44.67;28.25;;;10.10;99.90;;;;;;5067552;28;20044;-71
2021/12/13 12:34:52;;;;;;;44.58;29.35;;;10.10;99.90;;;;;;5063023;28;20048;-71
2021/12/13 12:37:27;;;;;;;59.08;31.85;;;10.10;99.90;;;;;;5069149;28;20166;-71
2021/12/13 12:40:19;;;;;;;52.35;32.88;;;10.10;99.90;;;;;;5068715;28;20098;-71
2021/12/13 12:42:49;;;;;;;42.47;28.45;;;10.10;99.90;;;;;;5082603;28;20060;-71
2021/12/13 12:45:36;;;;;;;43.35;28.38;;;10.10;99.90;;;;;;5055508;28;20049;-71
2021/12/13 12:48:16;;;;;;;50.65;29.52;;;10.10;99.90;;;;;;5068181;28;20036;-71
2021/12/13 12:50:49;;;;;;;46.65;29.30;;;10.10;99.90;;;;;;5064024;28;20098;-71
2021/12/13 12:53:23;;;;;;;45.40;28.15;;;10.00;99.90;;;;;;5066417;28;20417;-72
2021/12/13 12:55:56;;;;;;;49.67;30.20;;;10.10;99.90;;;;;;5069164;28;20126;-71
2021/12/13 12:58:48;;;;;;;43.50;30.02;;;10.00;99.90;;;;;;5067768;28;20094;-72
2021/12/13 13:01:25;;;;;;;44.83;29.00;;;10.10;99.90;;;;;;5051129;28;20044;-72
2021/12/13 13:03:52;;;;;;;48.25;30.33;;;10.10;99.90;;;;;;5073558;28;20090;-72
2021/12/13 13:06:23;;;;;;;40.83;28.40;;;10.10;99.90;;;;;;5066807;28;20044;-72
2021/12/13 13:08:54;;;;;;;49.80;30.88;;;10.20;99.90;;;;;;5069269;28;20105;-72
2021/12/13 13:11:27;;;;;;;47.38;29.58;;;10.10;99.90;;;;;;5066109;28;20052;-72
2021/12/13 13:13:58;;;;;;;46.63;28.10;;;10.20;99.90;;;;;;5070308;28;20129;-71
2021/12/13 13:16:35;;;;;;;50.38;31.23;;;10.20;99.90;;;;;;5062330;28;20044;-71
2021/12/13 13:19:04;;;;;;;51.17;30.02;;;10.20;99.90;;;;;;5071916;28;20408;-72